Stanton, California
Current Conditions -  °F | °C
As of 12:58 PM on Wednesday 17 Dec 2014 (Local Time) from KSLI Reporting Station
Broken Clouds Broken Clouds  
Wind Chill: 64°   Ceiling: 20000
Heat Index: 64°   Visibility: 10mi
Dew Point: 52°   Wind: 6mph
Humidity: 64%   Direction: 260°W
Pressure: 30.05"   Gusts: NA
Location:  33.8°N, 117.99°W
Report Text: KSLI 172058Z 26005KT 10SM FEW033 SCT055 BKN200 18/11 A3005 RMK AO2A SLP179 T01780110 55006
Loading
Personal Weather Stations






























Interactive Weather Map New forecast layout! Learn more

10-Day Weather Forecast

Advertisements
Track Severe Weather on mobile